createdAt,value
2017-06-03T00:00:37.697Z,100872.41
2017-06-03T00:03:05.240Z,100866.26
2017-06-03T00:05:32.771Z,100856.58
2017-06-03T00:08:00.315Z,100862.45
2017-06-03T00:10:27.852Z,100855.14
2017-06-03T00:12:55.431Z,100851.11
2017-06-03T00:15:22.967Z,100851.61
2017-06-03T00:17:50.487Z,100847.50
2017-06-03T00:20:18.069Z,100846.85
2017-06-03T00:22:45.597Z,100844.03
2017-06-03T00:25:13.140Z,100839.16
2017-06-03T00:27:40.670Z,100829.87
2017-06-03T00:30:08.583Z,100828.07
2017-06-03T00:32:36.103Z,100821.94
2017-06-03T00:35:03.621Z,100819.85
2017-06-03T00:37:31.183Z,100811.07
2017-06-03T00:39:58.710Z,100814.05
2017-06-03T00:42:26.269Z,100810.98
2017-06-03T00:44:53.807Z,100811.62
2017-06-03T00:47:21.404Z,100814.11
2017-06-03T00:49:49.297Z,100819.55
2017-06-03T00:52:16.880Z,100828.28
2017-06-03T00:54:44.668Z,100827.75
2017-06-03T00:57:12.236Z,100831.95
2017-06-03T00:59:39.909Z,100832.97
2017-06-03T01:02:07.450Z,100843.52
2017-06-03T01:04:35.088Z,100848.11
2017-06-03T01:07:02.656Z,100848.98
2017-06-03T01:09:30.181Z,100844.38
2017-06-03T01:11:57.909Z,100841.13
2017-06-03T01:14:25.468Z,100832.87
2017-06-03T01:16:53.163Z,100834.85
2017-06-03T01:19:20.701Z,100834.38
2017-06-03T01:21:48.276Z,100837.20
2017-06-03T01:24:15.847Z,100836.68
2017-06-03T01:26:43.423Z,100837.02
2017-06-03T01:29:10.976Z,100827.65
2017-06-03T01:31:38.554Z,100836.02
2017-06-03T01:34:06.171Z,100835.34
2017-06-03T01:36:33.835Z,100833.23
2017-06-03T01:39:01.376Z,100832.03
2017-06-03T01:41:28.965Z,100830.91
2017-06-03T01:43:56.574Z,100835.86
2017-06-03T01:46:24.103Z,100833.30
2017-06-03T01:48:51.643Z,100837.58
2017-06-03T01:51:19.362Z,100832.53
2017-06-03T01:53:46.885Z,100828.88
2017-06-03T01:56:14.419Z,100819.58
2017-06-03T01:58:42.018Z,100810.69
2017-06-03T02:01:09.707Z,100814.70
2017-06-03T02:03:37.250Z,100817.63
2017-06-03T02:06:04.860Z,100824.17
2017-06-03T02:08:32.381Z,100822.11
2017-06-03T02:10:59.895Z,100824.09
2017-06-03T02:13:27.604Z,100821.95
2017-06-03T02:15:55.151Z,100816.25
2017-06-03T02:18:22.723Z,100815.91
2017-06-03T02:20:50.255Z,100815.42
2017-06-03T02:23:17.940Z,100813.88
2017-06-03T02:25:45.524Z,100815.05
2017-06-03T02:28:13.099Z,100815.89
2017-06-03T02:30:40.648Z,100814.28
2017-06-03T02:33:08.253Z,100819.05
2017-06-03T02:35:35.763Z,100824.17
2017-06-03T02:38:03.320Z,100823.90
2017-06-03T02:40:30.890Z,100826.39
2017-06-03T02:42:58.443Z,100822.17
2017-06-03T02:45:26.037Z,100823.84
2017-06-03T02:47:53.587Z,100824.34
2017-06-03T02:50:21.114Z,100814.26
2017-06-03T02:52:48.680Z,100814.34
2017-06-03T02:55:16.250Z,100812.57
2017-06-03T02:57:43.781Z,100822.27
2017-06-03T03:00:11.329Z,100820.83
2017-06-03T03:02:38.916Z,100820.66
2017-06-03T03:05:06.454Z,100817.64
2017-06-03T03:07:33.986Z,100834.28
2017-06-03T03:10:01.540Z,100832.78
2017-06-03T03:12:29.067Z,100837.99
2017-06-03T03:14:56.632Z,100844.02
2017-06-03T03:17:24.153Z,100847.98
2017-06-03T03:19:51.704Z,100835.03
2017-06-03T03:22:19.218Z,100819.08
2017-06-03T03:24:46.793Z,100813.61
2017-06-03T03:27:14.327Z,100821.56
2017-06-03T03:29:41.847Z,100827.14
2017-06-03T03:32:09.455Z,100826.87
2017-06-03T03:34:37.011Z,100827.06
2017-06-03T03:37:04.639Z,100832.64
2017-06-03T03:39:32.164Z,100828.87
2017-06-03T03:41:59.731Z,100829.91
2017-06-03T03:44:27.248Z,100826.97
2017-06-03T03:46:54.776Z,100832.06
2017-06-03T03:49:22.351Z,100835.33
2017-06-03T03:51:50.012Z,100821.48
2017-06-03T03:54:17.736Z,100821.61
2017-06-03T03:56:45.289Z,100829.61
2017-06-03T03:59:12.882Z,100828.78
2017-06-03T04:01:40.431Z,100832.42
2017-06-03T04:04:07.992Z,100832.59
2017-06-03T04:06:35.556Z,100832.25
2017-06-03T04:09:03.153Z,100829.91
2017-06-03T04:11:30.702Z,100837.29
2017-06-03T04:13:58.248Z,100844.25
2017-06-03T04:16:25.802Z,100846.16
2017-06-03T04:18:53.324Z,100847.64
2017-06-03T04:21:20.891Z,100840.34
2017-06-03T04:23:49.153Z,100835.11
2017-06-03T04:26:16.691Z,100831.67
2017-06-03T04:28:44.267Z,100836.01
2017-06-03T04:31:11.789Z,100833.53
2017-06-03T04:33:39.359Z,100838.24
2017-06-03T04:36:06.888Z,100838.45
2017-06-03T04:38:34.405Z,100845.59
2017-06-03T04:41:01.951Z,100841.88
2017-06-03T04:43:29.489Z,100828.83
2017-06-03T04:45:57.058Z,100827.51
2017-06-03T04:48:24.622Z,100833.20
2017-06-03T04:50:52.152Z,100835.30
2017-06-03T04:53:19.702Z,100840.06
2017-06-03T04:55:47.287Z,100833.02
2017-06-03T04:58:14.841Z,100824.03
2017-06-03T05:00:42.374Z,100823.97
2017-06-03T05:03:09.939Z,100824.17
2017-06-03T05:05:37.462Z,100822.48
2017-06-03T05:08:05.038Z,100816.20
2017-06-03T05:10:32.594Z,100831.92
2017-06-03T05:13:00.410Z,100830.98
2017-06-03T05:15:27.948Z,100828.67
2017-06-03T05:17:55.613Z,100821.48
2017-06-03T05:20:23.151Z,100819.63
2017-06-03T05:22:50.715Z,100825.36
2017-06-03T05:25:18.358Z,100827.39
2017-06-03T05:27:45.908Z,100823.72
2017-06-03T05:30:13.478Z,100820.75
2017-06-03T05:32:41.007Z,100819.05
2017-06-03T05:35:08.559Z,100813.07
2017-06-03T05:37:36.085Z,100804.41
2017-06-03T05:40:03.653Z,100808.66
2017-06-03T05:42:31.200Z,100815.22
2017-06-03T05:44:58.837Z,100818.34
2017-06-03T05:47:26.379Z,100822.22
2017-06-03T05:49:54.258Z,100820.95
2017-06-03T05:52:21.788Z,100829.41
2017-06-03T05:54:49.319Z,100829.68
2017-06-03T05:57:16.879Z,100831.83
2017-06-03T05:59:44.438Z,100825.89
2017-06-03T06:02:12.155Z,100830.28
2017-06-03T06:04:39.683Z,100829.72
2017-06-03T06:07:07.251Z,100830.74
2017-06-03T06:09:34.815Z,100834.21
2017-06-03T06:12:02.366Z,100828.72
2017-06-03T06:14:29.895Z,100828.28
2017-06-03T06:16:57.504Z,100824.53
2017-06-03T06:19:25.063Z,100823.52
2017-06-03T06:21:52.671Z,100824.95
2017-06-03T06:24:20.179Z,100823.98
2017-06-03T06:26:47.783Z,100832.19
2017-06-03T06:29:15.301Z,100829.60
2017-06-03T06:31:42.882Z,100832.09
2017-06-03T06:34:10.455Z,100834.05
2017-06-03T06:36:37.992Z,100833.71
2017-06-03T06:39:05.564Z,100830.16
2017-06-03T06:41:33.090Z,100825.10
2017-06-03T06:44:00.660Z,100821.83
2017-06-03T06:46:28.214Z,100824.11
2017-06-03T06:48:55.788Z,100819.66
2017-06-03T06:51:23.334Z,100821.69
2017-06-03T06:53:50.863Z,100825.33
2017-06-03T06:56:18.407Z,100830.68
2017-06-03T06:58:45.935Z,100834.91
2017-06-03T07:01:13.516Z,100834.83
2017-06-03T07:03:41.041Z,100834.30
2017-06-03T07:06:08.599Z,100827.91
2017-06-03T07:08:36.143Z,100826.87
2017-06-03T07:11:03.726Z,100823.46
2017-06-03T07:13:31.276Z,100826.09
2017-06-03T07:15:58.854Z,100831.19
2017-06-03T07:18:26.422Z,100840.97
2017-06-03T07:20:53.959Z,100834.48
2017-06-03T07:23:21.535Z,100841.05
2017-06-03T07:25:49.073Z,100844.55
2017-06-03T07:28:16.728Z,100839.67
2017-06-03T07:30:44.288Z,100839.83
2017-06-03T07:33:11.971Z,100834.25
2017-06-03T07:35:39.519Z,100836.77
2017-06-03T07:38:07.165Z,100833.82
2017-06-03T07:40:34.751Z,100826.80
2017-06-03T07:43:02.267Z,100829.61
2017-06-03T07:45:29.852Z,100834.64
2017-06-03T07:47:57.359Z,100836.42
2017-06-03T07:50:24.950Z,100836.56
2017-06-03T07:52:52.487Z,100835.86
2017-06-03T07:55:20.203Z,100833.13
2017-06-03T07:57:47.759Z,100834.33
2017-06-03T08:00:15.267Z,100838.39
2017-06-03T08:02:42.891Z,100840.19
2017-06-03T08:05:10.415Z,100835.92
2017-06-03T08:07:38.092Z,100838.86
2017-06-03T08:10:05.631Z,100829.05
2017-06-03T08:12:33.171Z,100828.09
2017-06-03T08:15:00.867Z,100828.38
2017-06-03T08:17:28.442Z,100821.07
2017-06-03T08:19:56.055Z,100819.53
2017-06-03T08:22:23.569Z,100818.40
2017-06-03T08:24:51.462Z,100813.29
2017-06-03T08:27:18.979Z,100819.33
2017-06-03T08:29:46.534Z,100814.25
2017-06-03T08:32:14.076Z,100813.09
2017-06-03T08:34:41.608Z,100808.67
2017-06-03T08:37:09.314Z,100807.59
2017-06-03T08:39:36.842Z,100803.59
2017-06-03T08:42:04.426Z,100801.73
2017-06-03T08:44:32.319Z,100795.56
2017-06-03T08:46:59.835Z,100791.92
2017-06-03T08:49:27.406Z,100789.20
2017-06-03T08:54:29.045Z,100791.59
2017-06-03T08:56:56.587Z,100789.27
2017-06-03T08:59:24.104Z,100792.64
2017-06-03T09:01:51.672Z,100801.11
2017-06-03T09:04:19.208Z,100799.83
2017-06-03T09:06:46.759Z,100797.10
2017-06-03T09:09:14.315Z,100794.23
2017-06-03T09:11:42.170Z,100801.86
2017-06-03T09:25:04.895Z,100798.66
2017-06-03T09:27:32.461Z,100801.66
2017-06-03T09:30:01.025Z,100795.20
2017-06-03T09:32:28.555Z,100798.55
2017-06-03T09:34:56.112Z,100798.55
2017-06-03T09:37:23.647Z,100797.47
2017-06-03T09:39:51.244Z,100800.34
2017-06-03T09:42:18.787Z,100799.52
2017-06-03T09:44:46.336Z,100802.16
2017-06-03T09:47:13.907Z,100803.34
2017-06-03T09:49:42.116Z,100800.25
2017-06-03T09:52:09.660Z,100801.75
2017-06-03T09:54:37.237Z,100797.70
2017-06-03T09:57:04.767Z,100797.45
2017-06-03T09:59:32.321Z,100796.92
2017-06-03T10:01:59.856Z,100794.64
2017-06-03T10:04:27.625Z,100793.17
2017-06-03T10:06:55.160Z,100798.67
2017-06-03T10:09:22.694Z,100790.67
2017-06-03T10:11:50.287Z,100793.50
2017-06-03T10:14:17.808Z,100792.11
2017-06-03T10:16:45.388Z,100786.62
2017-06-03T10:19:12.909Z,100790.16
2017-06-03T10:21:40.595Z,100795.09
2017-06-03T10:24:08.131Z,100790.48
2017-06-03T10:26:35.667Z,100783.94
2017-06-03T10:29:03.243Z,100780.58
2017-06-03T10:31:30.783Z,100773.50
2017-06-03T10:33:58.776Z,100771.83
2017-06-03T10:36:26.307Z,100766.76
2017-06-03T10:38:54.661Z,100769.48
2017-06-03T10:41:22.220Z,100765.63
2017-06-03T10:43:49.773Z,100763.83
2017-06-03T10:46:17.342Z,100757.78
2017-06-03T10:48:45.003Z,100761.00
2017-06-03T10:51:12.788Z,100772.41
2017-06-03T10:53:40.385Z,100764.88
2017-06-03T10:56:08.150Z,100764.98
2017-06-03T10:58:35.718Z,100760.45
2017-06-03T11:01:03.329Z,100756.84
2017-06-03T11:03:30.912Z,100762.80
2017-06-03T11:05:58.468Z,100761.50
2017-06-03T11:08:26.209Z,100761.67
2017-06-03T11:10:53.792Z,100761.52
2017-06-03T11:13:21.453Z,100759.27
2017-06-03T11:15:48.987Z,100748.53
2017-06-03T11:18:17.220Z,100748.15
2017-06-03T11:20:44.867Z,100739.22
2017-06-03T11:23:12.494Z,100735.56
2017-06-03T11:28:07.036Z,100734.29
2017-06-03T11:30:35.308Z,100728.17
2017-06-03T11:33:02.944Z,100723.98
2017-06-03T11:35:30.455Z,100723.09
2017-06-03T11:37:58.031Z,100727.05
2017-06-03T11:40:25.530Z,100718.44
2017-06-03T11:42:53.155Z,100721.61
2017-06-03T11:45:20.715Z,100713.86
2017-06-03T11:47:48.434Z,100713.80
2017-06-03T11:50:15.987Z,100708.30
2017-06-03T11:52:43.552Z,100707.30
2017-06-03T11:55:11.152Z,100708.64
2017-06-03T11:57:38.662Z,100703.09
2017-06-03T12:00:06.195Z,100704.11
2017-06-03T12:02:33.768Z,100708.55
2017-06-03T12:05:01.307Z,100709.90
2017-06-03T12:07:28.835Z,100707.85
2017-06-03T12:09:56.371Z,100710.48
2017-06-03T12:12:23.931Z,100703.32
2017-06-03T12:14:51.474Z,100704.44
2017-06-03T12:17:18.995Z,100707.67
2017-06-03T12:19:46.566Z,100695.30
2017-06-03T12:22:14.106Z,100694.22
2017-06-03T12:24:41.677Z,100692.59
2017-06-03T12:27:09.269Z,100690.38
2017-06-03T12:29:36.823Z,100692.23
2017-06-03T12:32:04.414Z,100691.26
2017-06-03T12:34:31.933Z,100692.78
2017-06-03T12:36:59.467Z,100679.41
2017-06-03T12:39:27.070Z,100684.81
2017-06-03T12:41:54.626Z,100676.00
2017-06-03T12:44:22.256Z,100686.70
2017-06-03T12:46:49.780Z,100685.88
2017-06-03T12:49:17.455Z,100683.97
2017-06-03T12:51:45.004Z,100678.36
2017-06-03T12:54:12.628Z,100670.14
2017-06-03T12:56:40.166Z,100676.73
2017-06-03T12:59:07.720Z,100663.80
2017-06-03T13:01:35.504Z,100671.78
2017-06-03T13:04:03.015Z,100661.69
2017-06-03T13:06:30.561Z,100654.08
2017-06-03T13:08:58.334Z,100652.97
2017-06-03T13:11:25.858Z,100649.64
2017-06-03T13:13:53.495Z,100646.73
2017-06-03T13:16:22.000Z,100645.61
2017-06-03T13:18:49.531Z,100641.72
2017-06-03T13:21:17.124Z,100650.98
2017-06-03T13:23:44.707Z,100654.37
2017-06-03T13:26:12.529Z,100652.62
2017-06-03T13:28:40.077Z,100647.73
2017-06-03T13:31:07.690Z,100657.87
2017-06-03T13:33:35.263Z,100657.16
2017-06-03T13:36:02.839Z,100649.55
2017-06-03T13:38:30.416Z,100656.02
2017-06-03T13:40:57.959Z,100653.20
2017-06-03T13:43:25.604Z,100657.54
2017-06-03T13:45:53.117Z,100657.67
2017-06-03T13:48:20.681Z,100652.31
2017-06-03T13:50:48.299Z,100651.93
2017-06-03T13:53:15.879Z,100666.05
2017-06-03T13:55:43.441Z,100662.55
2017-06-03T13:58:11.020Z,100670.03
2017-06-03T14:00:38.548Z,100669.95
2017-06-03T14:03:06.128Z,100674.06
2017-06-03T14:05:33.696Z,100675.23
2017-06-03T14:08:01.263Z,100667.66
2017-06-03T14:10:28.827Z,100671.25
2017-06-03T14:12:56.343Z,100677.17
2017-06-03T14:15:24.015Z,100668.56
2017-06-03T14:17:51.539Z,100672.11
2017-06-03T14:20:19.247Z,100666.36
2017-06-03T14:22:46.759Z,100664.57
2017-06-03T14:25:14.267Z,100657.78
2017-06-03T14:27:41.818Z,100670.20
2017-06-03T14:30:09.387Z,100660.28
2017-06-03T14:32:37.163Z,100668.98
2017-06-03T14:35:04.688Z,100654.86
2017-06-03T14:37:32.201Z,100644.17
2017-06-03T14:39:59.765Z,100644.32
2017-06-03T14:42:27.404Z,100651.80
2017-06-03T14:44:55.138Z,100655.10
2017-06-03T14:47:22.668Z,100655.62
2017-06-03T14:49:50.183Z,100658.29
2017-06-03T14:52:17.741Z,100660.59
2017-06-03T14:54:45.249Z,100660.90
2017-06-03T14:57:12.928Z,100663.39
2017-06-03T14:59:40.447Z,100663.84
2017-06-03T15:02:07.984Z,100660.83
2017-06-03T15:04:35.529Z,100651.74
2017-06-03T15:07:03.300Z,100660.70
2017-06-03T15:09:30.925Z,100654.50
2017-06-03T15:11:58.504Z,100649.86
2017-06-03T15:14:26.030Z,100647.59
2017-06-03T15:16:53.555Z,100647.16
2017-06-03T15:19:21.172Z,100648.41
2017-06-03T15:21:48.820Z,100649.19
2017-06-03T15:24:16.346Z,100650.73
2017-06-03T15:26:43.872Z,100653.70
2017-06-03T15:29:11.432Z,100661.37
2017-06-03T15:31:38.941Z,100658.02
2017-06-03T15:34:06.637Z,100661.20
2017-06-03T15:36:34.143Z,100656.42
2017-06-03T15:39:01.699Z,100647.06
2017-06-03T15:41:29.242Z,100649.44
2017-06-03T15:43:56.809Z,100636.95
2017-06-03T15:46:24.365Z,100631.76
2017-06-03T15:48:51.947Z,100633.05
2017-06-03T15:51:19.461Z,100627.23
2017-06-03T15:53:47.090Z,100617.61
2017-06-03T15:56:14.632Z,100602.58
2017-06-03T15:58:42.175Z,100595.97
2017-06-03T16:01:09.702Z,100595.41
2017-06-03T16:03:37.251Z,100595.70
2017-06-03T16:06:04.788Z,100592.42
2017-06-03T16:08:32.495Z,100587.80
2017-06-03T16:11:00.055Z,100586.80
2017-06-03T16:13:27.591Z,100582.58
2017-06-03T16:15:55.259Z,100592.97
2017-06-03T16:18:22.780Z,100589.75
2017-06-03T16:20:50.335Z,100588.64
2017-06-03T16:23:17.862Z,100595.63
2017-06-03T16:25:45.415Z,100588.86
2017-06-03T16:28:12.925Z,100583.98
2017-06-03T16:30:40.590Z,100590.15
2017-06-03T16:33:08.123Z,100590.68
2017-06-03T16:35:35.638Z,100588.08
2017-06-03T16:38:03.241Z,100593.08
2017-06-03T16:40:30.751Z,100584.95
2017-06-03T16:42:58.594Z,100596.98
2017-06-03T16:45:26.112Z,100596.64
2017-06-03T16:47:53.630Z,100595.46
2017-06-03T16:50:21.195Z,100596.09
2017-06-03T16:52:48.720Z,100593.61
2017-06-03T16:55:16.462Z,100588.96
2017-06-03T16:57:43.988Z,100589.55
2017-06-03T17:00:11.541Z,100593.30
2017-06-03T17:02:39.108Z,100585.65
2017-06-03T17:05:06.651Z,100589.97
2017-06-03T17:07:34.340Z,100590.55
2017-06-03T17:10:01.875Z,100594.95
2017-06-03T17:12:29.399Z,100601.31
2017-06-03T17:14:56.955Z,100601.48
2017-06-03T17:17:24.479Z,100594.72
2017-06-03T17:19:52.039Z,100605.28
2017-06-03T17:22:19.568Z,100609.94
2017-06-03T17:24:47.171Z,100606.44
2017-06-03T17:27:14.727Z,100610.63
2017-06-03T17:29:42.409Z,100608.80
2017-06-03T17:32:09.963Z,100610.41
2017-06-03T17:34:37.582Z,100612.47
2017-06-03T17:37:05.180Z,100612.11
2017-06-03T17:39:32.778Z,100605.16
2017-06-03T17:42:00.511Z,100609.36
2017-06-03T17:44:28.058Z,100609.69
2017-06-03T17:46:55.576Z,100615.34
2017-06-03T17:49:23.148Z,100614.62
2017-06-03T17:51:50.747Z,100611.52
2017-06-03T17:54:18.382Z,100607.21
2017-06-03T17:56:45.914Z,100609.64
2017-06-03T17:59:13.599Z,100603.87
2017-06-03T18:01:41.128Z,100604.55
2017-06-03T18:04:09.151Z,100607.49
2017-06-03T18:06:36.680Z,100609.64
2017-06-03T18:09:04.227Z,100615.54
2017-06-03T18:11:31.848Z,100623.33
2017-06-03T18:13:59.384Z,100630.27
2017-06-03T18:16:26.967Z,100638.39
2017-06-03T18:18:54.604Z,100640.55
2017-06-03T18:21:22.180Z,100649.50
2017-06-03T18:23:49.707Z,100650.26
2017-06-03T18:26:17.493Z,100655.08
2017-06-03T18:28:45.029Z,100658.45
2017-06-03T18:31:12.568Z,100652.91
2017-06-03T18:33:40.151Z,100662.22
2017-06-03T18:36:07.712Z,100661.13
2017-06-03T18:38:35.403Z,100668.68
2017-06-03T18:41:02.926Z,100671.12
2017-06-03T18:43:30.462Z,100671.48
2017-06-03T18:45:58.011Z,100668.66
2017-06-03T18:48:25.529Z,100675.03
2017-06-03T18:50:53.305Z,100668.06
2017-06-03T18:53:20.843Z,100671.52
2017-06-03T18:55:48.360Z,100662.39
2017-06-03T18:58:15.919Z,100662.97
2017-06-03T19:00:43.552Z,100663.44
2017-06-03T19:03:11.628Z,100665.11
2017-06-03T19:05:39.278Z,100664.64
2017-06-03T19:08:06.840Z,100668.40
2017-06-03T19:10:36.486Z,100673.41
2017-06-03T19:13:04.127Z,100668.89
2017-06-03T19:15:31.726Z,100668.00
2017-06-03T19:17:59.302Z,100662.88
2017-06-03T19:20:27.071Z,100664.70
2017-06-03T19:22:54.619Z,100663.12
2017-06-03T19:25:22.135Z,100661.46
2017-06-03T19:27:49.715Z,100661.80
2017-06-03T19:30:17.248Z,100668.63
2017-06-03T19:32:44.915Z,100664.52
2017-06-03T19:35:12.455Z,100659.80
2017-06-03T19:37:40.006Z,100661.52
2017-06-03T19:40:07.598Z,100657.52
2017-06-03T19:42:35.138Z,100659.81
2017-06-03T19:45:02.871Z,100659.08
2017-06-03T19:47:30.419Z,100657.31
2017-06-03T19:49:57.981Z,100670.38
2017-06-03T19:52:25.546Z,100673.02
2017-06-03T19:54:53.097Z,100681.90
2017-06-03T19:57:20.859Z,100687.27
2017-06-03T19:59:48.387Z,100699.83
2017-06-03T20:02:15.914Z,100697.81
2017-06-03T20:04:43.464Z,100700.94
2017-06-03T20:07:11.027Z,100699.75
2017-06-03T20:09:38.630Z,100697.30
2017-06-03T20:12:06.167Z,100703.47
2017-06-03T20:14:33.842Z,100707.26
2017-06-03T20:17:01.372Z,100708.28
2017-06-03T20:19:28.915Z,100711.13
2017-06-03T20:21:56.488Z,100715.36
2017-06-03T20:24:24.019Z,100718.52
2017-06-03T20:26:51.989Z,100711.48
2017-06-03T20:29:19.537Z,100704.48
2017-06-03T20:31:47.096Z,100706.95
2017-06-03T20:34:14.692Z,100706.20
2017-06-03T20:36:42.226Z,100708.30
2017-06-03T20:39:09.818Z,100709.67
2017-06-03T20:41:37.351Z,100701.83
2017-06-03T20:44:05.023Z,100709.34
2017-06-03T20:46:32.571Z,100703.36
2017-06-03T20:49:00.102Z,100707.80
2017-06-03T20:51:27.681Z,100704.94
2017-06-03T20:53:55.251Z,100705.37
2017-06-03T20:56:22.819Z,100708.52
2017-06-03T20:58:50.431Z,100702.97
2017-06-03T21:01:17.978Z,100702.83
2017-06-03T21:03:45.547Z,100711.73
2017-06-03T21:06:13.456Z,100708.40
2017-06-03T21:08:40.992Z,100711.30
2017-06-03T21:11:08.520Z,100711.03
2017-06-03T21:13:36.079Z,100710.39
2017-06-03T21:16:03.600Z,100710.59
2017-06-03T21:18:31.532Z,100710.80
2017-06-03T21:20:59.038Z,100712.60
2017-06-03T21:23:26.551Z,100711.52
2017-06-03T21:25:54.107Z,100711.29
2017-06-03T21:28:21.619Z,100708.67
2017-06-03T21:30:49.443Z,100701.66
2017-06-03T21:33:16.988Z,100711.98
2017-06-03T21:35:44.524Z,100715.32
2017-06-03T21:38:12.110Z,100712.17
2017-06-03T21:40:39.660Z,100713.25
2017-06-03T21:43:07.463Z,100714.53
2017-06-03T21:45:34.992Z,100718.00
2017-06-03T21:48:02.503Z,100718.81
2017-06-03T21:50:30.089Z,100727.44
2017-06-03T21:52:57.620Z,100731.48
2017-06-03T21:55:25.175Z,100729.55
2017-06-03T21:57:52.710Z,100727.37
2017-06-03T22:00:20.276Z,100724.97
2017-06-03T22:02:47.818Z,100734.87
2017-06-03T22:05:15.653Z,100734.25
2017-06-03T22:07:43.242Z,100730.66
2017-06-03T22:10:10.776Z,100733.30
2017-06-03T22:12:38.367Z,100731.45
2017-06-03T22:15:05.892Z,100730.50
2017-06-03T22:17:33.448Z,100729.35
2017-06-03T22:20:00.974Z,100736.93
2017-06-03T22:22:28.639Z,100736.77
2017-06-03T22:24:56.177Z,100733.50
2017-06-03T22:27:23.743Z,100732.63
2017-06-03T22:29:51.288Z,100734.60
2017-06-03T22:32:18.800Z,100734.94
2017-06-03T22:34:46.469Z,100734.78
2017-06-03T22:37:13.988Z,100740.79
2017-06-03T22:39:41.531Z,100738.29
2017-06-03T22:42:09.128Z,100745.34
2017-06-03T22:44:36.694Z,100743.20
2017-06-03T22:47:04.286Z,100746.38
2017-06-03T22:49:31.871Z,100751.48
2017-06-03T22:51:59.573Z,100748.77
2017-06-03T22:54:27.183Z,100751.05
2017-06-03T22:56:54.716Z,100746.23
2017-06-03T22:59:22.281Z,100751.89
2017-06-03T23:01:49.799Z,100749.77
2017-06-03T23:04:17.461Z,100756.46
2017-06-03T23:06:44.976Z,100754.98
2017-06-03T23:09:12.703Z,100755.29
2017-06-03T23:11:40.248Z,100760.44
2017-06-03T23:14:07.808Z,100761.95
2017-06-03T23:16:35.372Z,100768.50
2017-06-03T23:19:02.927Z,100766.05
2017-06-03T23:21:30.491Z,100768.64
2017-06-03T23:23:58.018Z,100767.39
2017-06-03T23:26:25.740Z,100763.08
2017-06-03T23:28:53.317Z,100767.49
2017-06-03T23:31:20.849Z,100753.45
2017-06-03T23:33:48.520Z,100768.75
2017-06-03T23:36:16.057Z,100762.70
2017-06-03T23:38:43.655Z,100766.61
2017-06-03T23:41:11.289Z,100760.42
2017-06-03T23:43:39.267Z,100769.29
2017-06-03T23:46:06.787Z,100769.34
2017-06-03T23:48:34.325Z,100770.13
2017-06-03T23:51:01.891Z,100776.63
2017-06-03T23:53:29.430Z,100775.31
2017-06-03T23:55:57.247Z,100773.84
2017-06-03T23:58:24.764Z,100777.66
